createdAt,value
2023-03-03T00:02:27.504Z,8.90
2023-03-03T00:04:54.761Z,9.00
2023-03-03T00:07:22.836Z,9.20
2023-03-03T00:09:51.274Z,9.80
2023-03-03T00:12:48.016Z,9.60
2023-03-03T00:15:21.230Z,9.30
2023-03-03T00:17:57.008Z,9.10
2023-03-03T00:20:37.439Z,9.60
2023-03-03T00:23:42.121Z,10.50
2023-03-03T00:26:21.484Z,9.60
2023-03-03T00:28:51.295Z,9.20
2023-03-03T00:31:33.778Z,9.30
2023-03-03T00:34:19.700Z,9.40
2023-03-03T00:36:56.874Z,8.90
2023-03-03T00:40:02.488Z,10.20
2023-03-03T00:42:55.703Z,8.20
2023-03-03T00:45:46.831Z,9.40
2023-03-03T00:48:27.044Z,11.80
2023-03-03T00:50:59.453Z,10.20
2023-03-03T00:53:30.223Z,11.30
2023-03-03T00:55:59.145Z,10.80
2023-03-03T00:58:30.405Z,11.70
2023-03-03T01:00:58.975Z,10.80
2023-03-03T01:03:35.926Z,10.20
2023-03-03T01:06:06.711Z,10.60
2023-03-03T01:08:36.370Z,11.50
2023-03-03T01:11:11.554Z,10.90
2023-03-03T01:13:41.530Z,10.40
2023-03-03T01:16:19.861Z,11.30
2023-03-03T01:18:54.322Z,11.90
2023-03-03T01:21:22.168Z,10.20
2023-03-03T01:23:51.545Z,10.40
2023-03-03T01:26:19.975Z,11.80
2023-03-03T01:28:53.035Z,11.80
2023-03-03T01:31:20.941Z,12.30
2023-03-03T01:33:48.950Z,11.80
2023-03-03T01:36:24.854Z,11.80
2023-03-03T01:38:58.606Z,12.60
2023-03-03T01:41:30.045Z,11.70
2023-03-03T01:46:50.199Z,12.60
2023-03-03T01:49:43.651Z,11.30
2023-03-03T01:52:26.955Z,13.60
2023-03-03T01:54:59.151Z,13.60
2023-03-03T01:57:32.098Z,11.60
2023-03-03T02:00:00.575Z,12.00
2023-03-03T02:02:28.987Z,12.60
2023-03-03T02:04:56.342Z,12.30
2023-03-03T02:07:26.858Z,13.60
2023-03-03T02:10:14.845Z,12.60
2023-03-03T02:12:45.515Z,12.50
2023-03-03T02:15:40.529Z,11.50
2023-03-03T02:18:14.970Z,12.10
2023-03-03T02:21:20.059Z,14.50
2023-03-03T02:24:12.123Z,11.30
2023-03-03T02:29:22.791Z,11.90
2023-03-03T02:31:50.506Z,10.30
2023-03-03T02:34:18.964Z,11.90
2023-03-03T02:36:46.334Z,10.40
2023-03-03T02:39:27.842Z,11.50
2023-03-03T02:42:16.649Z,11.70
2023-03-03T02:45:04.625Z,12.00
2023-03-03T02:47:36.911Z,13.50
2023-03-03T02:50:04.568Z,12.30
2023-03-03T02:52:34.950Z,15.00
2023-03-03T02:55:07.412Z,11.90
2023-03-03T02:57:36.819Z,14.00
2023-03-03T03:03:04.407Z,13.10
2023-03-03T03:05:35.159Z,13.10
2023-03-03T03:08:03.749Z,13.60
2023-03-03T03:10:36.527Z,13.40
2023-03-03T03:13:10.187Z,14.50
2023-03-03T03:15:39.197Z,12.90
2023-03-03T03:18:08.137Z,11.80
2023-03-03T03:20:48.546Z,11.80
2023-03-03T03:23:17.892Z,10.80
2023-03-03T03:25:48.097Z,12.10
2023-03-03T03:28:23.352Z,11.90
2023-03-03T03:30:53.140Z,12.20
2023-03-03T03:33:21.122Z,11.80
2023-03-03T03:35:50.251Z,11.40
2023-03-03T03:38:19.481Z,11.60
2023-03-03T03:40:50.273Z,11.90
2023-03-03T03:43:18.667Z,11.80
2023-03-03T03:45:47.126Z,13.60
2023-03-03T03:48:17.577Z,13.50
2023-03-03T03:50:51.071Z,13.50
2023-03-03T03:53:26.584Z,13.90
2023-03-03T03:55:54.129Z,12.20
2023-03-03T03:58:25.490Z,9.90
2023-03-03T04:01:04.548Z,10.70
2023-03-03T04:03:44.991Z,10.40
2023-03-03T04:06:16.048Z,11.50
2023-03-03T04:08:43.300Z,10.10
2023-03-03T04:11:11.076Z,12.10
2023-03-03T04:13:39.035Z,10.90
2023-03-03T04:16:07.606Z,10.50
2023-03-03T04:18:35.668Z,11.40
2023-03-03T04:21:05.818Z,10.60
2023-03-03T04:23:33.565Z,10.90
2023-03-03T04:26:02.024Z,11.20
2023-03-03T04:28:29.836Z,11.30
2023-03-03T04:30:59.387Z,10.70
2023-03-03T04:33:39.493Z,10.80
2023-03-03T04:36:11.690Z,10.40
2023-03-03T04:38:40.245Z,9.90
2023-03-03T04:41:12.210Z,10.20
2023-03-03T04:43:42.751Z,10.80
2023-03-03T04:46:35.320Z,11.00
2023-03-03T04:49:04.627Z,10.60
2023-03-03T04:51:35.103Z,12.00
2023-03-03T04:54:11.064Z,10.80
2023-03-03T04:56:39.643Z,9.90
2023-03-03T04:59:07.814Z,10.70
2023-03-03T05:01:35.263Z,11.70
2023-03-03T05:04:07.573Z,11.10
2023-03-03T05:13:43.070Z,10.40
2023-03-03T05:16:10.484Z,10.70
2023-03-03T05:18:37.639Z,10.00
2023-03-03T05:21:10.893Z,11.20
2023-03-03T05:23:40.381Z,11.60
2023-03-03T05:26:10.229Z,11.70
2023-03-03T05:28:39.557Z,9.90
2023-03-03T05:31:13.026Z,10.50
2023-03-03T05:33:43.367Z,12.80
2023-03-03T05:36:12.530Z,11.70
2023-03-03T05:38:49.039Z,11.60
2023-03-03T05:41:16.602Z,11.70
2023-03-03T05:43:49.798Z,12.20
2023-03-03T05:46:18.796Z,10.80
2023-03-03T05:48:53.290Z,10.20
2023-03-03T05:51:48.384Z,12.00
2023-03-03T05:54:20.345Z,11.20
2023-03-03T05:56:49.055Z,11.90
2023-03-03T05:59:45.463Z,11.50
2023-03-03T06:02:14.143Z,12.20
2023-03-03T06:04:48.780Z,11.40
2023-03-03T06:07:27.553Z,11.00
2023-03-03T06:09:56.539Z,13.10
2023-03-03T06:12:35.056Z,12.50
2023-03-03T06:15:08.865Z,12.30
2023-03-03T06:17:40.087Z,12.80
2023-03-03T06:27:33.835Z,13.40
2023-03-03T06:30:10.765Z,11.70
2023-03-03T06:32:48.163Z,12.20
2023-03-03T06:35:18.388Z,11.30
2023-03-03T06:37:50.471Z,12.90
2023-03-03T06:40:19.352Z,12.10
2023-03-03T06:45:17.591Z,11.40
2023-03-03T06:47:50.312Z,11.70
2023-03-03T06:50:20.508Z,13.40
2023-03-03T06:52:48.800Z,11.80
2023-03-03T06:55:26.808Z,12.10
2023-03-03T06:57:55.527Z,11.10
2023-03-03T07:00:30.814Z,11.80
2023-03-03T07:03:14.925Z,10.00
2023-03-03T07:05:48.207Z,10.00
2023-03-03T07:08:23.179Z,11.40
2023-03-03T07:11:07.832Z,9.70
2023-03-03T07:13:43.612Z,12.00
2023-03-03T07:16:25.601Z,20.30
2023-03-03T07:19:03.863Z,24.90
2023-03-03T07:21:39.372Z,41.00
2023-03-03T07:24:24.574Z,51.30
2023-03-03T07:27:17.238Z,34.70
2023-03-03T07:29:47.844Z,24.00
2023-03-03T07:32:27.493Z,14.50
2023-03-03T07:34:55.856Z,11.90
2023-03-03T07:37:32.253Z,10.00
2023-03-03T07:40:07.041Z,9.40
2023-03-03T07:42:44.095Z,7.50
2023-03-03T07:45:44.012Z,7.50
2023-03-03T07:48:47.724Z,7.40
2023-03-03T07:54:24.747Z,7.40
2023-03-03T07:57:34.637Z,7.40
2023-03-03T08:00:18.978Z,6.70
2023-03-03T08:03:05.252Z,7.70
2023-03-03T08:05:37.976Z,7.10
2023-03-03T08:08:11.491Z,6.70
2023-03-03T08:10:55.292Z,8.70
2023-03-03T08:13:55.214Z,7.90
2023-03-03T08:16:35.406Z,7.60
2023-03-03T08:19:05.974Z,8.60
2023-03-03T08:21:34.201Z,8.30
2023-03-03T08:24:06.740Z,6.60
2023-03-03T08:26:37.889Z,5.80
2023-03-03T08:29:08.800Z,5.00
2023-03-03T08:31:41.612Z,4.70
2023-03-03T08:34:13.495Z,5.50
2023-03-03T08:36:41.755Z,4.60
2023-03-03T08:39:09.902Z,5.80
2023-03-03T08:41:43.346Z,4.20
2023-03-03T08:44:16.798Z,4.60
2023-03-03T08:46:47.416Z,4.90
2023-03-03T08:49:19.912Z,7.70
2023-03-03T08:51:48.210Z,4.70
2023-03-03T08:54:21.198Z,4.60
2023-03-03T08:56:49.599Z,5.00
2023-03-03T08:59:17.223Z,4.30
2023-03-03T09:01:45.075Z,5.30
2023-03-03T09:04:16.338Z,4.50
2023-03-03T09:06:44.019Z,4.90
2023-03-03T09:09:19.353Z,5.00
2023-03-03T09:11:58.346Z,4.40
2023-03-03T09:14:29.944Z,4.30
2023-03-03T09:17:02.830Z,4.70
2023-03-03T09:19:37.207Z,4.80
2023-03-03T09:22:23.998Z,5.10
2023-03-03T09:24:53.923Z,5.20
2023-03-03T09:27:31.322Z,5.00
2023-03-03T09:30:12.219Z,4.10
2023-03-03T09:32:39.898Z,5.10
2023-03-03T09:35:27.477Z,4.10
2023-03-03T09:37:57.405Z,5.30
2023-03-03T09:40:56.189Z,7.30
2023-03-03T09:44:11.782Z,4.40
2023-03-03T09:47:13.460Z,4.20
2023-03-03T09:50:31.987Z,6.40
2023-03-03T09:55:41.775Z,4.10
2023-03-03T09:58:31.732Z,4.30
2023-03-03T10:01:15.839Z,5.20
2023-03-03T10:04:17.042Z,5.90
2023-03-03T10:07:17.816Z,5.80
2023-03-03T10:10:07.995Z,5.30
2023-03-03T10:12:58.961Z,6.00
2023-03-03T10:15:49.060Z,6.20
2023-03-03T10:18:42.212Z,6.60
2023-03-03T10:21:50.437Z,5.80
2023-03-03T10:24:20.640Z,5.70
2023-03-03T10:27:26.191Z,4.60
2023-03-03T10:30:42.608Z,4.80
2023-03-03T10:36:30.752Z,4.50
2023-03-03T10:39:23.408Z,5.50
2023-03-03T10:42:32.894Z,5.70
2023-03-03T10:45:27.309Z,6.40
2023-03-03T10:48:09.333Z,6.30
2023-03-03T10:51:18.157Z,5.80
2023-03-03T10:54:32.629Z,5.90
2023-03-03T10:57:16.165Z,6.10
2023-03-03T11:00:15.565Z,5.80
2023-03-03T11:03:16.805Z,6.60
2023-03-03T11:06:18.553Z,7.10
2023-03-03T11:09:08.984Z,6.00
2023-03-03T11:11:52.117Z,7.30
2023-03-03T11:15:02.564Z,5.70
2023-03-03T11:18:23.834Z,5.20
2023-03-03T11:21:02.945Z,6.20
2023-03-03T11:24:25.512Z,5.70
2023-03-03T11:27:23.692Z,6.80
2023-03-03T11:30:30.296Z,6.20
2023-03-03T11:33:06.094Z,6.70
2023-03-03T11:36:01.432Z,6.80
2023-03-03T11:38:44.728Z,6.60
2023-03-03T11:41:32.111Z,6.20
2023-03-03T11:44:28.934Z,4.70
2023-03-03T11:47:19.316Z,4.10
2023-03-03T11:50:03.549Z,3.90
2023-03-03T11:52:47.404Z,3.60
2023-03-03T11:55:28.307Z,4.70
2023-03-03T11:58:53.309Z,4.50
2023-03-03T12:01:59.567Z,4.60
2023-03-03T12:04:30.329Z,4.20
2023-03-03T12:07:37.035Z,3.80
2023-03-03T12:10:29.119Z,4.20
2023-03-03T12:13:25.239Z,3.50
2023-03-03T12:16:04.560Z,3.90
2023-03-03T12:18:52.483Z,8.70
2023-03-03T12:21:35.172Z,4.20
2023-03-03T12:24:16.548Z,3.70
2023-03-03T12:27:29.322Z,4.30
2023-03-03T12:30:26.929Z,4.60
2023-03-03T12:33:03.417Z,3.60
2023-03-03T12:36:16.649Z,3.50
2023-03-03T12:39:09.505Z,3.90
2023-03-03T12:41:42.712Z,3.70
2023-03-03T12:44:18.763Z,4.60
2023-03-03T12:47:03.186Z,3.70
2023-03-03T12:50:06.997Z,3.30
2023-03-03T12:52:57.942Z,4.00
2023-03-03T12:56:00.509Z,2.90
2023-03-03T12:59:11.175Z,4.50
2023-03-03T13:02:02.529Z,3.60
2023-03-03T13:04:47.504Z,4.20
2023-03-03T13:07:22.078Z,4.10
2023-03-03T13:10:02.697Z,4.20
2023-03-03T13:13:21.260Z,3.90
2023-03-03T13:15:59.633Z,3.50
2023-03-03T13:18:51.629Z,3.90
2023-03-03T13:21:35.898Z,3.60
2023-03-03T13:24:15.496Z,4.50
2023-03-03T13:26:44.854Z,4.40
2023-03-03T13:29:35.332Z,4.00
2023-03-03T13:32:16.047Z,3.30
2023-03-03T13:34:51.096Z,4.10
2023-03-03T13:37:46.027Z,3.90
2023-03-03T13:40:34.628Z,3.30
2023-03-03T13:43:11.165Z,4.30
2023-03-03T13:46:05.416Z,3.70
2023-03-03T13:48:49.396Z,4.60
2023-03-03T13:51:29.240Z,4.60
2023-03-03T13:54:57.612Z,4.30
2023-03-03T13:58:02.810Z,3.00
2023-03-03T14:00:57.098Z,3.40
2023-03-03T14:04:09.542Z,3.50
2023-03-03T14:06:40.853Z,3.00
2023-03-03T14:09:56.833Z,3.20
2023-03-03T14:12:47.413Z,4.30
2023-03-03T14:15:46.505Z,3.90
2023-03-03T14:18:41.829Z,4.00
2023-03-03T14:21:30.933Z,3.60
2023-03-03T14:24:18.254Z,3.60
2023-03-03T14:27:00.796Z,4.90
2023-03-03T14:29:35.193Z,4.80
2023-03-03T14:32:44.837Z,3.50
2023-03-03T14:35:25.561Z,3.50
2023-03-03T14:38:26.498Z,3.50
2023-03-03T14:41:32.097Z,4.20
2023-03-03T14:47:35.134Z,4.00
2023-03-03T14:50:31.024Z,5.40
2023-03-03T14:53:16.338Z,6.00
2023-03-03T14:56:06.092Z,6.90
2023-03-03T14:58:46.120Z,8.70
2023-03-03T15:01:46.335Z,9.00
2023-03-03T15:04:16.294Z,9.80
2023-03-03T15:07:42.537Z,10.20
2023-03-03T15:10:46.324Z,10.90
2023-03-03T15:13:20.818Z,10.50
2023-03-03T15:16:45.014Z,10.30
2023-03-03T15:19:50.329Z,10.70
2023-03-03T15:22:40.188Z,10.50
2023-03-03T15:25:43.968Z,10.70
2023-03-03T15:29:02.677Z,11.60
2023-03-03T15:34:59.476Z,12.10
2023-03-03T15:37:52.247Z,11.80
2023-03-03T15:40:34.297Z,11.30
2023-03-03T15:43:46.762Z,11.10
2023-03-03T15:46:47.305Z,11.20
2023-03-03T15:49:38.473Z,11.50
2023-03-03T15:52:37.116Z,10.50
2023-03-03T15:55:36.706Z,11.10
2023-03-03T15:58:39.871Z,9.90
2023-03-03T16:01:20.305Z,11.50
2023-03-03T16:04:17.866Z,11.50
2023-03-03T16:07:01.026Z,11.20
2023-03-03T16:09:38.779Z,11.60
2023-03-03T16:12:44.758Z,11.50
2023-03-03T16:15:20.828Z,10.80
2023-03-03T16:17:59.020Z,10.50
2023-03-03T16:21:05.012Z,9.20
2023-03-03T16:24:11.335Z,8.60
2023-03-03T16:27:05.032Z,9.50
2023-03-03T16:29:50.162Z,8.90
2023-03-03T16:32:44.188Z,9.60
2023-03-03T16:35:30.998Z,9.60
2023-03-03T16:53:54.072Z,8.40
2023-03-03T16:57:03.097Z,9.10
2023-03-03T17:00:00.663Z,9.00
2023-03-03T17:03:16.063Z,8.30
2023-03-03T17:07:02.055Z,9.30
2023-03-03T17:09:33.014Z,8.00
2023-03-03T17:12:13.365Z,8.20
2023-03-03T17:15:01.032Z,7.30
2023-03-03T17:18:00.441Z,7.90
2023-03-03T17:20:50.943Z,7.50
2023-03-03T17:23:31.012Z,9.20
2023-03-03T17:26:08.683Z,9.00
2023-03-03T17:29:09.912Z,7.40
2023-03-03T17:32:07.878Z,7.80
2023-03-03T17:35:02.267Z,8.50
2023-03-03T17:38:21.562Z,9.00
2023-03-03T17:41:41.483Z,8.30
2023-03-03T17:44:57.955Z,7.90
2023-03-03T17:47:47.894Z,7.90
2023-03-03T17:50:59.436Z,8.10
2023-03-03T17:54:00.004Z,8.70
2023-03-03T17:57:15.709Z,6.90
2023-03-03T18:00:17.034Z,7.50
2023-03-03T18:03:15.046Z,6.80
2023-03-03T18:06:07.962Z,7.90
2023-03-03T18:09:14.685Z,7.30
2023-03-03T18:12:41.485Z,6.70
2023-03-03T18:18:24.781Z,7.40
2023-03-03T18:21:15.442Z,7.60
2023-03-03T18:23:45.854Z,6.60
2023-03-03T18:26:35.633Z,7.50
2023-03-03T18:29:39.184Z,7.30
2023-03-03T18:32:24.057Z,8.40
2023-03-03T18:35:44.446Z,6.40
2023-03-03T18:41:34.191Z,9.40
2023-03-03T18:44:29.077Z,10.40
2023-03-03T18:47:12.763Z,8.70
2023-03-03T18:49:48.402Z,10.00
2023-03-03T18:52:32.751Z,10.30
2023-03-03T18:55:08.880Z,10.00
2023-03-03T18:57:42.694Z,9.20
2023-03-03T19:00:17.173Z,10.70
2023-03-03T19:05:37.075Z,10.40
2023-03-03T19:08:56.201Z,11.40
2023-03-03T19:12:02.957Z,12.10
2023-03-03T19:15:00.325Z,12.70
2023-03-03T19:17:50.364Z,13.20
2023-03-03T19:20:40.953Z,14.10
2023-03-03T19:24:19.319Z,12.70
2023-03-03T19:30:31.006Z,14.50
2023-03-03T19:33:07.729Z,15.00
2023-03-03T19:36:04.255Z,15.20
2023-03-03T19:38:50.954Z,15.80
2023-03-03T19:42:02.272Z,15.20
2023-03-03T19:45:13.924Z,14.60
2023-03-03T19:48:36.477Z,14.30
2023-03-03T19:51:15.438Z,15.70
2023-03-03T19:54:04.031Z,14.50
2023-03-03T19:56:53.467Z,15.50
2023-03-03T20:00:02.762Z,14.80
2023-03-03T20:03:06.776Z,17.70
2023-03-03T20:06:20.957Z,17.20
2023-03-03T20:09:30.896Z,18.10
2023-03-03T20:12:47.897Z,16.30
2023-03-03T20:15:30.605Z,18.50
2023-03-03T20:19:06.912Z,18.00
2023-03-03T20:21:41.708Z,20.10
2023-03-03T20:24:48.771Z,16.90
2023-03-03T20:28:04.892Z,18.70
2023-03-03T20:31:08.730Z,16.10
2023-03-03T20:33:50.692Z,17.50
2023-03-03T20:36:28.189Z,17.00
2023-03-03T20:39:06.839Z,19.00
2023-03-03T20:42:07.453Z,19.70
2023-03-03T20:45:02.892Z,19.80
2023-03-03T20:47:36.400Z,18.30
2023-03-03T20:50:25.908Z,18.30
2023-03-03T20:53:33.714Z,17.50
2023-03-03T20:56:27.610Z,19.70
2023-03-03T20:59:24.204Z,18.80
2023-03-03T21:02:38.057Z,18.00
2023-03-03T21:05:27.217Z,17.50
2023-03-03T21:08:02.889Z,20.20
2023-03-03T21:10:42.551Z,17.70
2023-03-03T21:13:42.247Z,17.50
2023-03-03T21:16:25.157Z,17.30
2023-03-03T21:19:03.451Z,17.10
2023-03-03T21:21:39.840Z,18.30
2023-03-03T21:24:19.010Z,15.90
2023-03-03T21:27:24.285Z,17.20
2023-03-03T21:30:03.063Z,14.60
2023-03-03T21:32:45.804Z,15.30
2023-03-03T21:35:16.618Z,19.40
2023-03-03T21:37:54.546Z,18.30
2023-03-03T21:40:48.692Z,16.30
2023-03-03T21:43:34.693Z,16.90
2023-03-03T21:46:08.437Z,16.50
2023-03-03T21:48:39.972Z,16.00
2023-03-03T21:51:13.659Z,16.90
2023-03-03T21:53:42.406Z,17.40
2023-03-03T21:56:11.096Z,16.50
2023-03-03T21:58:38.241Z,16.90
2023-03-03T22:01:06.319Z,16.40
2023-03-03T22:03:40.298Z,17.00
2023-03-03T22:06:11.505Z,17.00
2023-03-03T22:08:46.964Z,17.70
2023-03-03T22:11:15.673Z,18.50
2023-03-03T22:13:44.997Z,16.70
2023-03-03T22:16:16.709Z,17.90
2023-03-03T22:18:45.549Z,16.40
2023-03-03T22:21:15.317Z,18.00
2023-03-03T22:23:43.458Z,17.00
2023-03-03T22:26:14.174Z,17.30
2023-03-03T22:28:44.330Z,17.10
2023-03-03T22:31:12.933Z,16.90
2023-03-03T22:33:40.564Z,16.40
2023-03-03T22:36:08.359Z,16.90
2023-03-03T22:38:42.900Z,16.10
2023-03-03T22:41:10.435Z,16.90
2023-03-03T22:43:38.252Z,16.20
2023-03-03T22:46:07.690Z,15.50
2023-03-03T22:48:35.562Z,15.80
2023-03-03T22:51:11.222Z,16.60
2023-03-03T22:53:45.937Z,14.90
2023-03-03T22:56:13.153Z,15.50
2023-03-03T22:58:41.684Z,16.30
2023-03-03T23:01:08.886Z,15.70
2023-03-03T23:03:36.694Z,14.80
2023-03-03T23:06:05.753Z,13.10
2023-03-03T23:08:32.859Z,17.10
2023-03-03T23:11:02.621Z,15.90
2023-03-03T23:13:35.306Z,13.50
2023-03-03T23:16:06.559Z,14.00
2023-03-03T23:18:35.306Z,14.70
2023-03-03T23:21:03.562Z,15.60
2023-03-03T23:23:37.007Z,15.70
2023-03-03T23:26:08.403Z,14.90
2023-03-03T23:28:37.306Z,14.90
2023-03-03T23:31:04.622Z,13.00
2023-03-03T23:33:34.903Z,12.80
2023-03-03T23:36:04.434Z,13.20
2023-03-03T23:38:34.765Z,13.90
2023-03-03T23:41:02.403Z,13.80
2023-03-03T23:43:35.095Z,15.40
2023-03-03T23:46:03.101Z,14.30
2023-03-03T23:48:32.254Z,14.10
2023-03-03T23:51:04.039Z,14.00
2023-03-03T23:53:33.180Z,14.90
2023-03-03T23:56:07.472Z,15.20
2023-03-03T23:58:41.284Z,15.10
